createdAt,value
2022-08-26T00:01:56.366Z,99.90
2022-08-26T00:04:25.487Z,99.90
2022-08-26T00:06:53.715Z,99.90
2022-08-26T00:09:20.855Z,99.90
2022-08-26T00:11:48.497Z,99.90
2022-08-26T00:14:16.576Z,99.90
2022-08-26T00:16:48.252Z,99.90
2022-08-26T00:19:18.439Z,99.90
2022-08-26T00:21:46.556Z,99.90
2022-08-26T00:24:16.548Z,99.90
2022-08-26T00:26:44.757Z,99.90
2022-08-26T00:29:12.501Z,99.90
2022-08-26T00:31:40.787Z,99.90
2022-08-26T00:34:09.538Z,99.90
2022-08-26T00:36:39.772Z,99.90
2022-08-26T00:39:08.014Z,99.90
2022-08-26T00:41:37.537Z,99.90
2022-08-26T00:44:05.642Z,99.90
2022-08-26T00:46:37.230Z,99.90
2022-08-26T00:49:19.946Z,99.90
2022-08-26T00:51:52.432Z,99.90
2022-08-26T00:54:24.428Z,99.90
2022-08-26T00:57:02.175Z,99.90
2022-08-26T00:59:32.995Z,99.90
2022-08-26T01:02:02.912Z,99.90
2022-08-26T01:04:31.579Z,99.90
2022-08-26T01:06:59.067Z,99.90
2022-08-26T01:09:27.154Z,99.90
2022-08-26T01:11:57.710Z,99.90
2022-08-26T01:14:29.638Z,99.90
2022-08-26T01:16:56.615Z,99.90
2022-08-26T01:20:03.205Z,99.90
2022-08-26T01:22:42.005Z,99.90
2022-08-26T01:25:11.272Z,99.90
2022-08-26T01:27:38.614Z,99.90
2022-08-26T01:30:06.530Z,99.90
2022-08-26T01:32:34.121Z,99.90
2022-08-26T01:35:02.100Z,99.90
2022-08-26T01:37:35.117Z,99.90
2022-08-26T01:40:02.453Z,99.90
2022-08-26T01:42:30.043Z,99.90
2022-08-26T01:45:14.896Z,99.90
2022-08-26T01:47:43.175Z,99.90
2022-08-26T01:50:28.197Z,99.90
2022-08-26T01:53:00.197Z,99.90
2022-08-26T01:55:33.039Z,99.90
2022-08-26T01:58:05.301Z,99.90
2022-08-26T02:00:34.249Z,99.90
2022-08-26T02:03:17.850Z,99.90
2022-08-26T02:05:48.906Z,99.90
2022-08-26T02:08:24.919Z,99.90
2022-08-26T02:10:54.711Z,99.90
2022-08-26T02:13:25.376Z,99.90
2022-08-26T02:15:53.531Z,99.90
2022-08-26T02:18:20.765Z,99.90
2022-08-26T02:20:51.664Z,99.90
2022-08-26T02:23:18.903Z,99.90
2022-08-26T02:25:55.877Z,99.90
2022-08-26T02:28:23.071Z,99.90
2022-08-26T02:30:55.524Z,99.90
2022-08-26T02:33:22.776Z,99.90
2022-08-26T02:35:49.810Z,99.90
2022-08-26T02:38:17.815Z,99.90
2022-08-26T02:40:44.742Z,99.90
2022-08-26T02:43:12.678Z,99.90
2022-08-26T02:45:40.442Z,99.90
2022-08-26T02:48:15.218Z,99.90
2022-08-26T02:50:43.925Z,99.90
2022-08-26T02:53:12.293Z,99.90
2022-08-26T02:55:41.066Z,99.90
2022-08-26T02:58:09.626Z,99.90
2022-08-26T03:00:38.413Z,99.90
2022-08-26T03:03:05.780Z,99.90
2022-08-26T03:05:33.640Z,99.90
2022-08-26T03:08:01.887Z,99.90
2022-08-26T03:10:31.661Z,99.90
2022-08-26T03:13:00.671Z,99.90
2022-08-26T03:15:32.601Z,99.90
2022-08-26T03:17:59.916Z,99.90
2022-08-26T03:20:27.006Z,99.90
2022-08-26T03:22:56.122Z,99.90
2022-08-26T03:25:23.357Z,99.90
2022-08-26T03:27:51.045Z,99.90
2022-08-26T03:30:37.751Z,99.90
2022-08-26T03:33:05.069Z,99.90
2022-08-26T03:35:34.038Z,99.90
2022-08-26T03:38:02.018Z,99.90
2022-08-26T03:40:29.596Z,99.90
2022-08-26T03:42:56.550Z,99.90
2022-08-26T03:45:23.546Z,99.90
2022-08-26T03:47:51.779Z,99.90
2022-08-26T03:50:24.358Z,99.90
2022-08-26T03:52:53.026Z,99.90
2022-08-26T03:55:25.737Z,99.90
2022-08-26T03:57:54.320Z,99.90
2022-08-26T04:00:22.495Z,99.90
2022-08-26T04:02:53.181Z,99.90
2022-08-26T04:05:22.760Z,99.90
2022-08-26T04:07:49.971Z,99.90
2022-08-26T04:10:20.214Z,99.90
2022-08-26T04:12:47.749Z,99.90
2022-08-26T04:15:16.569Z,99.90
2022-08-26T04:17:45.319Z,99.90
2022-08-26T04:20:16.266Z,99.90
2022-08-26T04:22:43.899Z,99.90
2022-08-26T04:25:11.377Z,99.90
2022-08-26T04:27:38.493Z,99.90
2022-08-26T04:30:09.117Z,99.90
2022-08-26T04:32:37.084Z,99.90
2022-08-26T04:35:05.300Z,99.90
2022-08-26T04:37:33.734Z,99.90
2022-08-26T04:40:00.941Z,99.90
2022-08-26T04:42:29.401Z,99.90
2022-08-26T04:44:56.376Z,99.90
2022-08-26T04:47:23.658Z,99.90
2022-08-26T04:49:53.339Z,99.90
2022-08-26T04:52:20.470Z,99.90
2022-08-26T04:54:47.490Z,99.90
2022-08-26T04:57:15.059Z,99.90
2022-08-26T04:59:42.603Z,99.90
2022-08-26T05:02:09.552Z,99.90
2022-08-26T05:04:36.558Z,99.90
2022-08-26T05:07:04.475Z,99.90
2022-08-26T05:09:31.587Z,99.90
2022-08-26T05:11:58.505Z,99.90
2022-08-26T05:14:25.483Z,99.90
2022-08-26T05:16:52.740Z,99.90
2022-08-26T05:19:19.908Z,99.90
2022-08-26T05:21:49.360Z,99.90
2022-08-26T05:24:18.000Z,99.90
2022-08-26T05:26:45.586Z,99.90
2022-08-26T05:29:14.139Z,99.90
2022-08-26T05:31:41.654Z,99.90
2022-08-26T05:34:08.736Z,99.90
2022-08-26T05:36:36.237Z,99.90
2022-08-26T05:39:06.516Z,99.90
2022-08-26T05:41:38.403Z,99.90
2022-08-26T05:44:08.871Z,99.90
2022-08-26T05:46:36.886Z,99.90
2022-08-26T05:49:06.197Z,99.90
2022-08-26T05:51:41.512Z,99.90
2022-08-26T05:54:10.482Z,99.90
2022-08-26T05:56:38.666Z,99.90
2022-08-26T05:59:06.713Z,99.90
2022-08-26T06:01:43.627Z,99.90
2022-08-26T06:04:12.651Z,99.90
2022-08-26T06:06:43.277Z,99.90
2022-08-26T06:09:12.286Z,99.90
2022-08-26T06:11:40.357Z,99.90
2022-08-26T06:14:08.459Z,99.90
2022-08-26T06:16:41.308Z,99.90
2022-08-26T06:19:10.563Z,99.90
2022-08-26T06:21:40.359Z,99.90
2022-08-26T06:24:29.178Z,99.90
2022-08-26T06:27:01.786Z,99.90
2022-08-26T06:29:34.684Z,99.90
2022-08-26T06:32:04.926Z,99.90
2022-08-26T06:34:32.838Z,99.90
2022-08-26T06:37:06.637Z,99.90
2022-08-26T06:39:34.438Z,99.90
2022-08-26T06:42:03.274Z,99.90
2022-08-26T06:44:33.843Z,99.90
2022-08-26T06:47:01.068Z,99.90
2022-08-26T06:49:28.197Z,99.90
2022-08-26T06:51:58.715Z,99.90
2022-08-26T06:54:27.118Z,99.90
2022-08-26T06:56:56.143Z,99.90
2022-08-26T06:59:24.558Z,99.90
2022-08-26T07:01:52.489Z,99.90
2022-08-26T07:04:23.053Z,99.90
2022-08-26T07:06:52.970Z,98.70
2022-08-26T07:09:22.226Z,97.20
2022-08-26T07:11:49.599Z,98.90
2022-08-26T07:14:19.425Z,99.90
2022-08-26T07:16:52.410Z,99.30
2022-08-26T07:19:31.210Z,96.90
2022-08-26T07:22:04.810Z,95.00
2022-08-26T07:24:42.341Z,93.80
2022-08-26T07:27:15.231Z,93.20
2022-08-26T07:29:43.819Z,92.70
2022-08-26T07:32:14.148Z,92.50
2022-08-26T07:34:42.083Z,90.70
2022-08-26T07:37:09.849Z,90.90
2022-08-26T07:39:37.336Z,90.30
2022-08-26T07:42:07.538Z,91.80
2022-08-26T07:44:35.249Z,91.70
2022-08-26T07:47:02.338Z,91.10
2022-08-26T07:49:29.811Z,90.40
2022-08-26T07:51:57.254Z,88.20
2022-08-26T07:54:27.316Z,87.30
2022-08-26T07:56:55.936Z,87.90
2022-08-26T07:59:24.503Z,86.80
2022-08-26T08:01:52.300Z,87.30
2022-08-26T08:04:25.572Z,86.40
2022-08-26T08:06:54.340Z,86.60
2022-08-26T08:09:22.501Z,88.30
2022-08-26T08:11:51.379Z,87.20
2022-08-26T08:14:22.063Z,86.20
2022-08-26T08:16:53.321Z,83.60
2022-08-26T08:19:22.146Z,81.00
2022-08-26T08:21:49.900Z,79.20
2022-08-26T08:24:18.996Z,77.80
2022-08-26T08:26:46.386Z,76.80
2022-08-26T08:29:14.757Z,75.90
2022-08-26T08:31:58.502Z,75.30
2022-08-26T08:34:29.965Z,76.60
2022-08-26T08:36:57.589Z,75.90
2022-08-26T08:39:25.227Z,74.30
2022-08-26T08:42:09.579Z,73.80
2022-08-26T08:44:42.277Z,74.50
2022-08-26T08:47:20.754Z,73.30
2022-08-26T08:49:48.644Z,72.80
2022-08-26T08:52:37.781Z,71.90
2022-08-26T08:55:11.077Z,70.70
2022-08-26T08:58:08.047Z,71.10
2022-08-26T09:00:47.073Z,71.00
2022-08-26T09:03:52.121Z,72.80
2022-08-26T09:06:20.735Z,72.00
2022-08-26T09:08:50.852Z,73.60
2022-08-26T09:11:22.450Z,71.40
2022-08-26T09:13:54.054Z,70.60
2022-08-26T09:16:27.857Z,71.40
2022-08-26T09:19:23.525Z,69.60
2022-08-26T09:21:58.865Z,69.20
2022-08-26T09:24:28.585Z,68.90
2022-08-26T09:26:58.452Z,69.00
2022-08-26T09:29:29.693Z,69.90
2022-08-26T09:32:22.242Z,69.60
2022-08-26T09:34:59.474Z,69.30
2022-08-26T09:37:43.604Z,69.60
2022-08-26T09:40:27.021Z,68.70
2022-08-26T09:43:22.889Z,67.40
2022-08-26T09:46:10.243Z,66.90
2022-08-26T09:48:41.061Z,68.00
2022-08-26T09:51:35.733Z,67.60
2022-08-26T09:54:05.609Z,67.40
2022-08-26T09:56:39.178Z,68.40
2022-08-26T09:59:11.562Z,68.90
2022-08-26T10:01:43.971Z,68.90
2022-08-26T10:04:20.162Z,67.90
2022-08-26T10:06:59.251Z,68.40
2022-08-26T10:09:26.918Z,67.20
2022-08-26T10:11:59.130Z,66.30
2022-08-26T10:17:07.451Z,65.10
2022-08-26T10:19:57.813Z,65.50
2022-08-26T10:23:13.023Z,67.10
2022-08-26T10:26:08.603Z,65.10
2022-08-26T10:28:49.024Z,63.60
2022-08-26T10:31:28.786Z,63.20
2022-08-26T10:34:00.470Z,63.40
2022-08-26T10:37:15.206Z,63.10
2022-08-26T10:40:22.043Z,61.70
2022-08-26T10:43:19.163Z,61.50
2022-08-26T10:45:55.130Z,61.00
2022-08-26T10:48:35.374Z,61.10
2022-08-26T10:51:04.362Z,60.80
2022-08-26T10:53:32.882Z,61.50
2022-08-26T10:56:32.593Z,61.40
2022-08-26T10:59:12.326Z,62.70
2022-08-26T11:01:42.672Z,62.60
2022-08-26T11:04:09.893Z,61.30
2022-08-26T11:06:37.234Z,62.20
2022-08-26T11:09:07.209Z,64.50
2022-08-26T11:11:40.196Z,65.40
2022-08-26T11:14:10.131Z,64.60
2022-08-26T11:16:46.715Z,63.50
2022-08-26T11:20:00.875Z,62.40
2022-08-26T11:22:47.787Z,61.30
2022-08-26T11:25:26.452Z,62.10
2022-08-26T11:28:00.610Z,62.20
2022-08-26T11:30:40.570Z,62.40
2022-08-26T11:33:08.345Z,61.70
2022-08-26T11:35:37.447Z,60.90
2022-08-26T11:38:27.782Z,59.90
2022-08-26T11:41:10.886Z,59.80
2022-08-26T11:43:40.791Z,60.60
2022-08-26T11:46:11.242Z,61.20
2022-08-26T11:48:43.580Z,60.50
2022-08-26T11:51:21.015Z,60.80
2022-08-26T11:53:49.391Z,61.20
2022-08-26T11:56:24.763Z,60.50
2022-08-26T11:58:57.091Z,60.40
2022-08-26T12:01:31.817Z,61.70
2022-08-26T12:04:00.601Z,64.70
2022-08-26T12:06:38.866Z,65.00
2022-08-26T12:09:21.231Z,65.30
2022-08-26T12:11:50.935Z,66.90
2022-08-26T12:14:22.139Z,67.50
2022-08-26T12:16:49.521Z,66.10
2022-08-26T12:19:27.412Z,64.10
2022-08-26T12:22:15.625Z,63.60
2022-08-26T12:24:50.213Z,61.10
2022-08-26T12:27:29.191Z,61.80
2022-08-26T12:30:13.913Z,60.50
2022-08-26T12:32:58.762Z,59.80
2022-08-26T12:35:29.448Z,61.60
2022-08-26T12:37:57.667Z,62.30
2022-08-26T12:40:35.966Z,63.30
2022-08-26T12:43:07.486Z,64.30
2022-08-26T12:45:43.464Z,65.20
2022-08-26T12:48:29.293Z,65.90
2022-08-26T12:50:56.359Z,65.90
2022-08-26T12:53:29.427Z,66.10
2022-08-26T12:56:05.227Z,67.00
2022-08-26T12:58:33.662Z,67.40
2022-08-26T13:01:07.224Z,67.10
2022-08-26T13:03:34.599Z,68.10
2022-08-26T13:06:23.590Z,70.00
2022-08-26T13:09:17.022Z,71.60
2022-08-26T13:11:45.090Z,73.80
2022-08-26T13:14:21.095Z,74.80
2022-08-26T13:16:51.789Z,74.40
2022-08-26T13:19:21.442Z,74.40
2022-08-26T13:21:50.761Z,74.70
2022-08-26T13:24:22.582Z,75.50
2022-08-26T13:26:50.403Z,73.70
2022-08-26T13:29:18.375Z,74.90
2022-08-26T13:31:46.521Z,75.50
2022-08-26T13:34:19.032Z,75.00
2022-08-26T13:36:47.862Z,75.60
2022-08-26T13:39:14.909Z,76.30
2022-08-26T13:41:43.387Z,77.20
2022-08-26T13:44:11.342Z,77.70
2022-08-26T13:46:38.976Z,77.10
2022-08-26T13:49:07.036Z,77.20
2022-08-26T13:51:34.312Z,77.40
2022-08-26T13:54:01.847Z,78.50
2022-08-26T13:56:29.846Z,79.50
2022-08-26T13:58:58.396Z,80.70
2022-08-26T14:01:26.239Z,80.80
2022-08-26T14:03:53.339Z,80.20
2022-08-26T14:06:21.656Z,81.60
2022-08-26T14:08:48.912Z,82.30
2022-08-26T14:11:16.167Z,81.70
2022-08-26T14:13:43.534Z,82.90
2022-08-26T14:16:16.192Z,83.30
2022-08-26T14:18:47.328Z,82.80
2022-08-26T14:21:17.608Z,83.00
2022-08-26T14:23:44.962Z,84.10
2022-08-26T14:26:27.940Z,84.30
2022-08-26T14:28:58.983Z,84.00
2022-08-26T14:31:27.326Z,83.80
2022-08-26T14:33:57.913Z,83.60
2022-08-26T14:36:33.733Z,83.50
2022-08-26T14:39:18.783Z,83.90
2022-08-26T14:41:54.348Z,83.90
2022-08-26T14:44:27.834Z,83.50
2022-08-26T14:46:55.396Z,84.10
2022-08-26T14:49:24.221Z,84.40
2022-08-26T14:51:51.236Z,84.60
2022-08-26T14:54:19.961Z,84.90
2022-08-26T14:56:58.799Z,85.00
2022-08-26T14:59:27.727Z,85.40
2022-08-26T15:01:55.256Z,86.40
2022-08-26T15:04:23.244Z,86.90
2022-08-26T15:06:52.160Z,87.30
2022-08-26T15:09:19.404Z,88.00
2022-08-26T15:11:47.662Z,88.50
2022-08-26T15:14:19.688Z,88.80
2022-08-26T15:16:52.615Z,90.00
2022-08-26T15:19:20.990Z,90.30
2022-08-26T15:21:48.781Z,90.30
2022-08-26T15:24:19.355Z,90.60
2022-08-26T15:26:46.996Z,91.10
2022-08-26T15:29:14.781Z,91.50
2022-08-26T15:31:42.147Z,91.80
2022-08-26T15:34:16.045Z,92.30
2022-08-26T15:36:45.996Z,92.40
2022-08-26T15:39:14.101Z,92.60
2022-08-26T15:41:42.780Z,92.70
2022-08-26T15:44:11.424Z,93.20
2022-08-26T15:46:39.371Z,93.50
2022-08-26T15:49:07.500Z,93.70
2022-08-26T15:51:45.615Z,94.10
2022-08-26T15:54:14.331Z,94.60
2022-08-26T15:56:42.601Z,94.80
2022-08-26T15:59:11.842Z,95.20
2022-08-26T16:01:39.655Z,95.70
2022-08-26T16:04:07.644Z,95.80
2022-08-26T16:06:37.669Z,96.10
2022-08-26T16:09:06.006Z,96.40
2022-08-26T16:11:34.448Z,97.10
2022-08-26T16:14:02.151Z,97.10
2022-08-26T16:16:29.669Z,97.20
2022-08-26T16:18:57.075Z,97.70
2022-08-26T16:21:29.945Z,98.40
2022-08-26T16:23:58.162Z,98.90
2022-08-26T16:26:29.165Z,99.50
2022-08-26T16:28:56.550Z,99.90
2022-08-26T16:31:23.674Z,99.90
2022-08-26T16:33:51.551Z,99.90
2022-08-26T16:36:18.792Z,99.90
2022-08-26T16:38:53.578Z,99.90
2022-08-26T16:41:21.649Z,99.90
2022-08-26T16:43:48.850Z,99.90
2022-08-26T16:46:16.389Z,99.90
2022-08-26T16:48:44.803Z,99.90
2022-08-26T16:51:23.217Z,99.90
2022-08-26T16:53:51.774Z,99.90
2022-08-26T16:56:21.747Z,99.90
2022-08-26T16:58:49.365Z,99.90
2022-08-26T17:01:18.263Z,99.90
2022-08-26T17:03:45.355Z,99.90
2022-08-26T17:06:12.424Z,99.90
2022-08-26T17:08:41.280Z,99.90
2022-08-26T17:11:09.142Z,99.90
2022-08-26T17:13:39.344Z,99.90
2022-08-26T17:16:09.435Z,99.90
2022-08-26T17:18:37.189Z,99.90
2022-08-26T17:21:08.445Z,99.90
2022-08-26T17:23:37.113Z,99.90
2022-08-26T17:26:05.454Z,99.90
2022-08-26T17:28:32.953Z,99.90
2022-08-26T17:31:01.279Z,99.90
2022-08-26T17:33:29.378Z,99.90
2022-08-26T17:35:56.665Z,99.90
2022-08-26T17:38:24.534Z,99.90
2022-08-26T17:40:52.126Z,99.90
2022-08-26T17:43:19.659Z,99.90
2022-08-26T17:45:46.993Z,99.90
2022-08-26T17:48:14.871Z,99.90
2022-08-26T17:50:43.522Z,99.90
2022-08-26T17:53:18.712Z,99.90
2022-08-26T17:55:47.961Z,99.90
2022-08-26T17:58:17.477Z,99.90
2022-08-26T18:00:52.424Z,99.90
2022-08-26T18:03:20.082Z,99.90
2022-08-26T18:05:52.864Z,99.90
2022-08-26T18:08:20.501Z,99.90
2022-08-26T18:10:47.963Z,99.90
2022-08-26T18:13:15.413Z,99.90
2022-08-26T18:15:45.369Z,99.90
2022-08-26T18:18:14.105Z,99.90
2022-08-26T18:20:43.433Z,99.90
2022-08-26T18:23:11.466Z,99.90
2022-08-26T18:25:41.313Z,99.90
2022-08-26T18:28:08.670Z,99.90
2022-08-26T18:30:36.115Z,99.90
2022-08-26T18:33:03.248Z,99.90
2022-08-26T18:35:31.062Z,99.90
2022-08-26T18:37:58.355Z,99.90
2022-08-26T18:40:40.254Z,99.90
2022-08-26T18:43:07.405Z,99.90
2022-08-26T18:45:34.846Z,99.90
2022-08-26T18:48:03.478Z,99.90
2022-08-26T18:50:30.891Z,99.90
2022-08-26T18:52:58.062Z,99.90
2022-08-26T18:55:25.497Z,99.90
2022-08-26T18:57:52.611Z,99.90
2022-08-26T19:00:20.229Z,99.90
2022-08-26T19:02:52.045Z,99.90
2022-08-26T19:05:22.829Z,99.90
2022-08-26T19:07:49.763Z,99.90
2022-08-26T19:10:16.867Z,99.90
2022-08-26T19:12:43.956Z,99.90
2022-08-26T19:15:11.321Z,99.90
2022-08-26T19:17:38.270Z,99.90
2022-08-26T19:20:06.030Z,99.90
2022-08-26T19:22:33.280Z,99.90
2022-08-26T19:25:01.449Z,99.90
2022-08-26T19:27:28.435Z,99.90
2022-08-26T19:29:57.430Z,99.90
2022-08-26T19:32:25.530Z,99.90
2022-08-26T19:34:53.097Z,99.90
2022-08-26T19:37:20.594Z,99.90
2022-08-26T19:39:48.059Z,99.90
2022-08-26T19:42:15.008Z,99.90
2022-08-26T19:45:24.405Z,99.90
2022-08-26T19:47:53.177Z,99.90
2022-08-26T19:50:21.650Z,99.90
2022-08-26T19:52:48.989Z,99.90
2022-08-26T19:55:20.341Z,99.90
2022-08-26T19:57:47.495Z,99.90
2022-08-26T20:00:19.772Z,99.90
2022-08-26T20:02:47.444Z,99.90
2022-08-26T20:05:15.920Z,99.90
2022-08-26T20:07:43.722Z,99.90
2022-08-26T20:10:13.666Z,99.90
2022-08-26T20:12:42.086Z,99.90
2022-08-26T20:15:11.626Z,99.90
2022-08-26T20:17:39.323Z,99.90
2022-08-26T20:20:33.413Z,99.90
2022-08-26T20:23:03.715Z,99.90
2022-08-26T20:25:32.743Z,99.90
2022-08-26T20:28:00.584Z,99.90
2022-08-26T20:30:27.726Z,99.90
2022-08-26T20:32:54.863Z,99.90
2022-08-26T20:35:22.005Z,99.90
2022-08-26T20:37:49.093Z,99.90
2022-08-26T20:40:16.407Z,99.90
2022-08-26T20:42:43.602Z,99.90
2022-08-26T20:45:11.091Z,99.90
2022-08-26T20:47:38.276Z,99.90
2022-08-26T20:50:06.135Z,99.90
2022-08-26T20:52:33.188Z,99.90
2022-08-26T20:55:00.290Z,99.90
2022-08-26T20:57:27.226Z,99.90
2022-08-26T20:59:54.226Z,99.90
2022-08-26T21:02:21.816Z,99.90
2022-08-26T21:04:48.840Z,99.90
2022-08-26T21:07:16.803Z,99.90
2022-08-26T21:09:44.707Z,99.90
2022-08-26T21:12:12.953Z,99.90
2022-08-26T21:14:40.228Z,99.90
2022-08-26T21:17:07.197Z,99.90
2022-08-26T21:19:34.221Z,99.90
2022-08-26T21:22:01.255Z,99.90
2022-08-26T21:24:28.507Z,99.90
2022-08-26T21:26:55.491Z,99.90
2022-08-26T21:29:22.702Z,99.90
2022-08-26T21:31:50.127Z,99.90
2022-08-26T21:34:18.973Z,99.90
2022-08-26T21:36:47.617Z,99.90
2022-08-26T21:39:15.658Z,99.90
2022-08-26T21:41:43.806Z,99.90
2022-08-26T21:44:12.616Z,99.90
2022-08-26T21:46:40.581Z,99.90
2022-08-26T21:49:10.365Z,99.90
2022-08-26T21:51:40.299Z,99.90
2022-08-26T21:54:11.145Z,99.90
2022-08-26T21:56:46.302Z,99.90
2022-08-26T21:59:16.408Z,99.90
2022-08-26T22:01:43.462Z,99.90
2022-08-26T22:04:10.964Z,99.90
2022-08-26T22:06:47.842Z,99.90
2022-08-26T22:09:17.328Z,99.90
2022-08-26T22:11:44.901Z,99.90
2022-08-26T22:14:12.205Z,99.90
2022-08-26T22:16:39.376Z,99.90
2022-08-26T22:19:07.435Z,99.90
2022-08-26T22:21:39.765Z,99.90
2022-08-26T22:24:08.726Z,99.90
2022-08-26T22:26:36.014Z,99.90
2022-08-26T22:29:03.958Z,99.90
2022-08-26T22:31:37.283Z,99.90
2022-08-26T22:34:11.087Z,99.90
2022-08-26T22:36:44.013Z,99.90
2022-08-26T22:39:13.313Z,99.90
2022-08-26T22:41:41.352Z,99.90
2022-08-26T22:44:08.387Z,99.90
2022-08-26T22:46:36.947Z,99.90
2022-08-26T22:49:05.075Z,99.90
2022-08-26T22:51:32.261Z,99.90
2022-08-26T22:53:59.501Z,99.90
2022-08-26T22:56:26.674Z,99.90
2022-08-26T22:58:53.862Z,99.90
2022-08-26T23:01:21.204Z,99.90
2022-08-26T23:03:48.441Z,99.90
2022-08-26T23:06:15.868Z,99.90
2022-08-26T23:08:45.428Z,99.90
2022-08-26T23:11:14.222Z,99.90
2022-08-26T23:13:42.134Z,99.90
2022-08-26T23:16:12.611Z,99.90
2022-08-26T23:18:41.428Z,99.90
2022-08-26T23:21:09.459Z,99.90
2022-08-26T23:23:37.098Z,99.90
2022-08-26T23:26:06.349Z,99.90
2022-08-26T23:28:34.202Z,99.90
2022-08-26T23:31:01.158Z,99.90
2022-08-26T23:33:48.283Z,99.90
2022-08-26T23:36:17.875Z,99.90
2022-08-26T23:38:45.499Z,99.90
2022-08-26T23:41:21.474Z,99.90
2022-08-26T23:43:48.474Z,99.90
2022-08-26T23:46:15.692Z,99.90
2022-08-26T23:48:42.886Z,99.90
2022-08-26T23:51:28.557Z,99.90
2022-08-26T23:53:55.571Z,99.90
2022-08-26T23:56:22.520Z,99.90
2022-08-26T23:58:49.505Z,99.90
